Terminal Aerodrome Forecast
Issued by NWS Grand Forks, ND

Home | Current Version | Previous Version | Text Only | Print | Product List | Glossary On
Versions: 1 2 3 4 5 6 7 8 9 10 11 12 13 14 15 16 17
000
FTUS43 KFGF 311903 AAA
TAFFAR
TAF AMD
KFAR 311903Z 3119/0118 32011KT P6SM SCT250
      TEMPO 3119/3120 BKN028
     FM312000 34015KT P6SM BKN250
     FM010200 29006KT P6SM SKC
     FM010900 19005KT P6SM SCT250=

USA.gov is the U.S. government's official web portal to all federal, state and local government web resources and services.